アンタナナリボ の空港の天気 - METARとTAF

イヴァト空港(アンタナナリボ) ( FMMI / TNR ) - マダガスカル アンタナナリボ
飛行場実況気象(Metar)
観測時間06/17 22:30 EAT (06/17 19:30 UTC)
風向・風速南南東 4m/s
視程10km以上
天気現象
少しの雲 雲底高度 460m
全天の8割程度の雲 雲底高度 610m
気温15℃
湿度88%
気圧1027hPa
METARFMMI 171930Z 16007KT 120V200 9999 FEW015 BKN020 15/13 Q1027 NOSIG
過去の天気等 Google飛行場航空写真 Wunderground天気予報

過去48時間のMETAR

飛行場予報(TAF)
発表時間: -
17日23時 EAT ~ 18日7時 EAT に 確率 30% で一時的に
視程4500m
天気現象霧雨雨
TAF
FMMI 171700Z 1718/1824 14010KT 9999 FEW017 BKN020
PROB30 TEMPO 1720/1804 4500 DZRA